createdAt,value
2023-03-17T00:01:56.082Z,21.20
2023-03-17T00:04:28.563Z,21.50
2023-03-17T00:06:59.912Z,20.80
2023-03-17T00:09:30.908Z,20.90
2023-03-17T00:12:01.854Z,21.80
2023-03-17T00:14:32.840Z,20.70
2023-03-17T00:17:03.848Z,20.50
2023-03-17T00:19:36.715Z,22.30
2023-03-17T00:22:18.194Z,22.70
2023-03-17T00:24:49.049Z,22.40
2023-03-17T00:27:20.684Z,21.00
2023-03-17T00:29:51.951Z,22.90
2023-03-17T00:32:23.800Z,23.10
2023-03-17T00:34:55.646Z,23.00
2023-03-17T00:37:26.597Z,23.50
2023-03-17T00:39:57.518Z,24.70
2023-03-17T00:42:29.910Z,23.70
2023-03-17T00:45:01.509Z,22.30
2023-03-17T00:47:32.916Z,23.80
2023-03-17T00:50:05.111Z,23.50
2023-03-17T00:52:36.093Z,22.50
2023-03-17T00:55:09.188Z,25.10
2023-03-17T00:57:40.662Z,25.80
2023-03-17T01:00:23.065Z,24.60
2023-03-17T01:02:55.929Z,24.40
2023-03-17T01:05:28.661Z,24.20
2023-03-17T01:07:59.901Z,25.00
2023-03-17T01:10:32.766Z,25.70
2023-03-17T01:13:04.577Z,24.10
2023-03-17T01:15:36.378Z,24.20
2023-03-17T01:18:07.420Z,25.40
2023-03-17T01:20:38.269Z,24.30
2023-03-17T01:23:10.639Z,24.90
2023-03-17T01:25:43.269Z,22.30
2023-03-17T01:28:18.080Z,24.10
2023-03-17T01:30:50.123Z,22.60
2023-03-17T01:33:22.376Z,23.30
2023-03-17T01:35:53.503Z,22.60
2023-03-17T01:38:24.862Z,21.10
2023-03-17T01:40:56.836Z,22.80
2023-03-17T01:43:31.781Z,23.00
2023-03-17T01:46:30.082Z,24.10
2023-03-17T01:49:07.979Z,22.90
2023-03-17T01:51:46.501Z,21.00
2023-03-17T01:54:23.283Z,21.80
2023-03-17T01:56:57.779Z,21.60
2023-03-17T01:59:34.500Z,21.80
2023-03-17T02:02:07.988Z,22.40
2023-03-17T02:04:40.357Z,18.90
2023-03-17T02:07:13.192Z,21.10
2023-03-17T02:09:46.168Z,19.70
2023-03-17T02:12:17.430Z,20.40
2023-03-17T02:14:48.385Z,20.80
2023-03-17T02:17:19.296Z,19.30
2023-03-17T02:19:50.629Z,20.00
2023-03-17T02:22:22.030Z,20.30
2023-03-17T02:24:55.872Z,20.00
2023-03-17T02:27:33.929Z,19.80
2023-03-17T02:30:06.613Z,18.50
2023-03-17T02:32:40.454Z,22.90
2023-03-17T02:35:13.486Z,24.10
2023-03-17T02:37:46.779Z,22.20
2023-03-17T02:40:18.797Z,20.80
2023-03-17T02:42:49.748Z,20.50
2023-03-17T02:45:20.963Z,20.60
2023-03-17T02:47:53.168Z,20.10
2023-03-17T02:50:27.954Z,20.40
2023-03-17T02:52:59.192Z,23.10
2023-03-17T02:55:30.203Z,22.40
2023-03-17T02:58:03.239Z,22.20
2023-03-17T03:00:35.022Z,22.20
2023-03-17T03:06:21.443Z,22.30
2023-03-17T03:09:07.325Z,22.70
2023-03-17T03:11:38.433Z,21.50
2023-03-17T03:14:09.854Z,23.30
2023-03-17T03:16:40.749Z,22.40
2023-03-17T03:19:11.630Z,22.90
2023-03-17T03:21:43.584Z,23.40
2023-03-17T03:24:16.911Z,22.50
2023-03-17T03:26:48.333Z,24.40
2023-03-17T03:29:19.126Z,22.10
2023-03-17T03:31:53.432Z,22.70
2023-03-17T03:37:25.161Z,22.50
2023-03-17T03:39:56.610Z,21.50
2023-03-17T03:42:27.879Z,22.30
2023-03-17T03:45:02.591Z,22.40
2023-03-17T03:47:43.286Z,23.60
2023-03-17T03:50:15.285Z,23.20
2023-03-17T03:52:46.722Z,21.70
2023-03-17T03:55:17.952Z,23.40
2023-03-17T03:57:48.782Z,23.90
2023-03-17T04:00:21.153Z,22.90
2023-03-17T04:02:55.653Z,27.20
2023-03-17T04:05:26.876Z,28.20
2023-03-17T04:07:57.734Z,27.90
2023-03-17T04:10:29.980Z,25.80
2023-03-17T04:13:01.386Z,26.20
2023-03-17T04:15:35.277Z,25.50
2023-03-17T04:21:54.756Z,25.30
2023-03-17T04:24:23.575Z,23.60
2023-03-17T04:26:51.865Z,24.50
2023-03-17T04:29:20.371Z,22.80
2023-03-17T04:31:49.816Z,25.30
2023-03-17T04:34:20.083Z,25.20
2023-03-17T04:36:50.980Z,24.50
2023-03-17T04:39:41.531Z,23.80
2023-03-17T04:42:10.748Z,23.80
2023-03-17T04:44:39.356Z,23.60
2023-03-17T04:47:17.579Z,24.20
2023-03-17T04:49:46.198Z,23.00
2023-03-17T04:52:14.561Z,23.40
2023-03-17T04:54:43.045Z,24.50
2023-03-17T04:57:12.013Z,26.10
2023-03-17T04:59:40.275Z,27.20
2023-03-17T05:02:08.748Z,29.70
2023-03-17T05:04:37.898Z,27.90
2023-03-17T05:07:07.180Z,26.60
2023-03-17T05:09:36.453Z,21.80
2023-03-17T05:12:07.967Z,26.30
2023-03-17T05:14:36.486Z,24.40
2023-03-17T05:17:05.533Z,26.30
2023-03-17T05:19:36.684Z,24.50
2023-03-17T05:22:05.370Z,23.20
2023-03-17T05:24:34.957Z,23.80
2023-03-17T05:27:03.728Z,24.60
2023-03-17T05:29:32.104Z,24.70
2023-03-17T05:32:00.690Z,24.20
2023-03-17T05:34:33.565Z,24.90
2023-03-17T05:37:02.969Z,22.80
2023-03-17T05:39:31.871Z,23.20
2023-03-17T05:42:00.313Z,22.50
2023-03-17T05:44:28.585Z,23.20
2023-03-17T05:46:59.193Z,23.50
2023-03-17T05:49:28.503Z,23.20
2023-03-17T05:52:04.606Z,25.60
2023-03-17T05:54:33.005Z,23.00
2023-03-17T05:57:01.497Z,23.10
2023-03-17T05:59:29.956Z,24.80
2023-03-17T06:01:58.364Z,26.50
2023-03-17T06:04:26.740Z,24.30
2023-03-17T06:06:57.274Z,23.50
2023-03-17T06:09:25.668Z,22.50
2023-03-17T06:11:54.069Z,20.80
2023-03-17T06:14:22.461Z,20.70
2023-03-17T06:16:50.859Z,20.50
2023-03-17T06:19:21.988Z,20.70
2023-03-17T06:21:54.478Z,18.60
2023-03-17T06:24:30.792Z,17.70
2023-03-17T06:26:59.513Z,18.50
2023-03-17T06:29:28.192Z,17.60
2023-03-17T06:32:01.495Z,18.50
2023-03-17T06:34:42.671Z,15.20
2023-03-17T06:37:11.663Z,15.20
2023-03-17T06:39:47.814Z,14.50
2023-03-17T06:42:16.611Z,13.70
2023-03-17T06:44:44.988Z,13.80
2023-03-17T06:47:13.747Z,14.30
2023-03-17T06:49:42.288Z,13.70
2023-03-17T06:52:11.093Z,14.70
2023-03-17T06:54:40.709Z,14.30
2023-03-17T06:57:09.533Z,14.70
2023-03-17T06:59:38.601Z,14.50
2023-03-17T07:02:07.772Z,13.50
2023-03-17T07:04:37.584Z,14.10
2023-03-17T07:07:06.750Z,12.40
2023-03-17T07:09:35.222Z,10.40
2023-03-17T07:12:05.732Z,11.90
2023-03-17T07:14:36.471Z,11.50
2023-03-17T07:17:06.326Z,12.70
2023-03-17T07:19:35.020Z,13.40
2023-03-17T07:22:03.501Z,13.00
2023-03-17T07:24:32.040Z,12.50
2023-03-17T07:27:00.546Z,12.70
2023-03-17T07:29:29.399Z,11.90
2023-03-17T07:31:58.032Z,12.10
2023-03-17T07:34:27.590Z,11.70
2023-03-17T07:36:56.064Z,12.10
2023-03-17T07:39:24.356Z,12.30
2023-03-17T07:41:54.666Z,11.20
2023-03-17T07:44:23.309Z,11.20
2023-03-17T07:46:52.021Z,12.00
2023-03-17T07:49:38.002Z,11.90
2023-03-17T07:52:09.499Z,10.60
2023-03-17T07:54:43.029Z,10.40
2023-03-17T07:57:13.345Z,9.70
2023-03-17T07:59:41.851Z,10.00
2023-03-17T08:02:16.011Z,8.60
2023-03-17T08:04:45.227Z,9.90
2023-03-17T08:07:14.995Z,10.10
2023-03-17T08:09:46.748Z,11.90
2023-03-17T08:12:15.953Z,13.20
2023-03-17T08:14:44.229Z,11.30
2023-03-17T08:17:13.598Z,10.60
2023-03-17T08:19:41.868Z,10.20
2023-03-17T08:22:13.044Z,11.80
2023-03-17T08:24:42.436Z,11.10
2023-03-17T08:27:11.047Z,9.90
2023-03-17T08:29:39.719Z,9.40
2023-03-17T08:32:09.473Z,8.80
2023-03-17T08:34:40.611Z,13.60
2023-03-17T08:37:12.092Z,12.40
2023-03-17T08:39:41.094Z,8.30
2023-03-17T08:42:09.486Z,8.20
2023-03-17T08:44:38.526Z,8.20
2023-03-17T08:47:07.419Z,8.30
2023-03-17T08:49:35.994Z,6.90
2023-03-17T08:52:04.921Z,7.80
2023-03-17T08:54:36.125Z,7.30
2023-03-17T08:57:04.947Z,7.40
2023-03-17T08:59:33.232Z,7.30
2023-03-17T09:02:02.035Z,6.60
2023-03-17T09:04:31.984Z,5.70
2023-03-17T09:07:04.437Z,6.40
2023-03-17T09:09:34.804Z,6.50
2023-03-17T09:12:05.691Z,7.60
2023-03-17T09:14:42.873Z,11.40
2023-03-17T09:17:13.805Z,8.00
2023-03-17T09:19:42.858Z,6.90
2023-03-17T09:22:15.375Z,6.80
2023-03-17T09:24:44.185Z,6.80
2023-03-17T09:27:12.909Z,6.50
2023-03-17T09:29:42.087Z,5.80
2023-03-17T09:32:13.092Z,7.00
2023-03-17T09:34:42.508Z,5.60
2023-03-17T09:37:14.019Z,6.20
2023-03-17T09:39:42.565Z,6.10
2023-03-17T09:42:38.675Z,4.80
2023-03-17T09:45:24.684Z,6.30
2023-03-17T09:48:33.596Z,5.50
2023-03-17T09:51:04.705Z,6.20
2023-03-17T09:53:36.158Z,5.80
2023-03-17T09:56:11.762Z,6.50
2023-03-17T09:58:49.535Z,5.90
2023-03-17T10:01:19.669Z,6.30
2023-03-17T10:03:50.046Z,5.80
2023-03-17T10:06:34.347Z,5.80
2023-03-17T10:09:14.557Z,4.90
2023-03-17T10:11:45.917Z,5.00
2023-03-17T10:14:38.327Z,4.80
2023-03-17T10:17:16.947Z,4.60
2023-03-17T10:19:49.053Z,5.50
2023-03-17T10:22:23.179Z,5.10
2023-03-17T10:24:57.087Z,5.30
2023-03-17T10:27:27.510Z,10.60
2023-03-17T10:29:57.807Z,5.40
2023-03-17T10:32:41.103Z,5.30
2023-03-17T10:35:12.172Z,5.10
2023-03-17T10:37:43.954Z,6.10
2023-03-17T10:40:26.205Z,4.90
2023-03-17T10:43:01.431Z,5.50
2023-03-17T10:45:33.429Z,5.50
2023-03-17T10:48:03.906Z,5.10
2023-03-17T10:50:35.815Z,5.50
2023-03-17T10:53:08.378Z,5.30
2023-03-17T10:55:44.399Z,5.70
2023-03-17T10:58:18.408Z,6.30
2023-03-17T11:00:57.287Z,6.70
2023-03-17T11:03:33.209Z,6.00
2023-03-17T11:06:06.595Z,5.70
2023-03-17T11:08:45.416Z,6.40
2023-03-17T11:14:37.556Z,5.70
2023-03-17T11:17:25.839Z,4.70
2023-03-17T11:20:03.671Z,5.80
2023-03-17T11:22:39.536Z,5.60
2023-03-17T11:25:14.269Z,6.00
2023-03-17T11:27:47.717Z,6.10
2023-03-17T11:30:23.521Z,6.10
2023-03-17T11:32:59.898Z,6.10
2023-03-17T11:35:55.165Z,6.60
2023-03-17T11:38:29.312Z,6.30
2023-03-17T11:41:13.268Z,6.20
2023-03-17T11:43:57.131Z,6.20
2023-03-17T11:46:28.476Z,5.90
2023-03-17T11:49:10.451Z,6.30
2023-03-17T11:51:56.882Z,6.10
2023-03-17T11:54:36.813Z,5.80
2023-03-17T11:57:11.535Z,7.50
2023-03-17T11:59:47.312Z,6.70
2023-03-17T12:02:24.694Z,7.00
2023-03-17T12:04:57.112Z,7.60
2023-03-17T12:07:29.609Z,6.80
2023-03-17T12:10:12.091Z,7.20
2023-03-17T12:12:46.173Z,7.60
2023-03-17T12:15:23.559Z,6.80
2023-03-17T12:17:57.627Z,7.30
2023-03-17T12:20:33.475Z,8.10
2023-03-17T12:23:12.132Z,7.30
2023-03-17T12:25:49.876Z,7.70
2023-03-17T12:28:24.951Z,7.90
2023-03-17T12:30:57.966Z,7.50
2023-03-17T12:33:31.619Z,7.80
2023-03-17T12:36:02.450Z,7.10
2023-03-17T12:38:37.972Z,7.70
2023-03-17T12:41:38.455Z,6.70
2023-03-17T12:44:17.991Z,7.80
2023-03-17T12:47:17.367Z,8.60
2023-03-17T12:50:13.652Z,8.20
2023-03-17T12:53:04.436Z,8.40
2023-03-17T12:55:36.367Z,9.00
2023-03-17T12:58:07.515Z,8.30
2023-03-17T13:00:50.011Z,8.40
2023-03-17T13:03:24.384Z,7.80
2023-03-17T13:05:58.082Z,8.20
2023-03-17T13:08:31.644Z,7.70
2023-03-17T13:11:46.393Z,8.20
2023-03-17T13:14:26.852Z,8.40
2023-03-17T13:17:04.567Z,8.20
2023-03-17T13:19:34.011Z,7.60
2023-03-17T13:22:33.063Z,7.80
2023-03-17T13:25:16.025Z,7.90
2023-03-17T13:27:46.063Z,7.40
2023-03-17T13:30:43.629Z,7.40
2023-03-17T13:33:30.685Z,6.40
2023-03-17T13:36:15.900Z,6.80
2023-03-17T13:39:18.331Z,5.70
2023-03-17T13:42:18.602Z,6.60
2023-03-17T13:45:09.919Z,6.70
2023-03-17T13:47:41.628Z,6.90
2023-03-17T13:50:15.703Z,5.40
2023-03-17T13:52:49.395Z,7.30
2023-03-17T13:55:37.362Z,6.40
2023-03-17T13:58:34.475Z,6.30
2023-03-17T14:01:09.377Z,6.80
2023-03-17T14:03:48.287Z,6.60
2023-03-17T14:06:19.914Z,5.90
2023-03-17T14:08:53.357Z,7.30
2023-03-17T14:11:33.530Z,6.80
2023-03-17T14:14:32.674Z,7.70
2023-03-17T14:17:10.119Z,7.40
2023-03-17T14:19:42.645Z,8.80
2023-03-17T14:22:22.997Z,7.90
2023-03-17T14:24:57.540Z,8.70
2023-03-17T14:27:35.100Z,8.30
2023-03-17T14:30:17.653Z,8.00
2023-03-17T14:32:50.368Z,8.40
2023-03-17T14:35:19.540Z,7.40
2023-03-17T14:37:47.818Z,7.20
2023-03-17T14:40:26.601Z,6.90
2023-03-17T14:42:57.066Z,7.60
2023-03-17T14:45:32.081Z,6.90
2023-03-17T14:48:02.546Z,7.70
2023-03-17T14:50:32.417Z,7.80
2023-03-17T14:53:06.584Z,7.80
2023-03-17T14:55:42.714Z,7.60
2023-03-17T14:58:21.264Z,8.00
2023-03-17T15:00:57.845Z,7.70
2023-03-17T15:03:32.442Z,7.80
2023-03-17T15:06:21.277Z,8.40
2023-03-17T15:08:51.994Z,8.50
2023-03-17T15:11:24.344Z,7.40
2023-03-17T15:13:56.862Z,7.90
2023-03-17T15:16:29.939Z,7.50
2023-03-17T15:19:17.635Z,7.70
2023-03-17T15:21:47.253Z,9.40
2023-03-17T15:24:36.217Z,8.10
2023-03-17T15:27:14.017Z,7.50
2023-03-17T15:29:42.695Z,8.10
2023-03-17T15:32:14.722Z,6.80
2023-03-17T15:34:43.297Z,8.10
2023-03-17T15:37:20.823Z,7.70
2023-03-17T15:39:50.844Z,8.20
2023-03-17T15:42:22.161Z,6.30
2023-03-17T15:44:53.387Z,8.40
2023-03-17T15:47:28.181Z,8.80
2023-03-17T15:50:00.704Z,6.70
2023-03-17T15:52:33.521Z,7.20
2023-03-17T15:55:05.090Z,6.50
2023-03-17T15:57:34.328Z,7.00
2023-03-17T16:00:03.675Z,7.20
2023-03-17T16:02:41.379Z,7.70
2023-03-17T16:05:21.029Z,6.60
2023-03-17T16:07:52.326Z,7.70
2023-03-17T16:10:22.998Z,7.90
2023-03-17T16:12:55.096Z,7.00
2023-03-17T16:15:25.487Z,6.30
2023-03-17T16:17:57.756Z,6.40
2023-03-17T16:20:28.239Z,6.80
2023-03-17T16:22:58.713Z,7.60
2023-03-17T16:25:28.881Z,6.40
2023-03-17T16:27:58.889Z,6.50
2023-03-17T16:30:29.889Z,7.80
2023-03-17T16:33:02.329Z,6.80
2023-03-17T16:35:31.583Z,7.00
2023-03-17T16:38:00.205Z,7.00
2023-03-17T16:40:33.686Z,6.00
2023-03-17T16:43:12.950Z,7.20
2023-03-17T16:45:44.239Z,6.10
2023-03-17T16:48:17.750Z,6.80
2023-03-17T16:50:46.534Z,7.20
2023-03-17T16:53:14.849Z,6.40
2023-03-17T16:55:44.167Z,5.90
2023-03-17T16:58:21.281Z,6.70
2023-03-17T17:00:51.374Z,6.80
2023-03-17T17:06:03.469Z,6.10
2023-03-17T17:08:31.744Z,6.00
2023-03-17T17:11:00.124Z,4.20
2023-03-17T17:13:30.848Z,4.70
2023-03-17T17:16:00.804Z,5.50
2023-03-17T17:18:29.168Z,6.60
2023-03-17T17:20:57.451Z,6.30
2023-03-17T17:23:27.509Z,6.90
2023-03-17T17:25:57.880Z,5.80
2023-03-17T17:28:26.604Z,6.10
2023-03-17T17:30:56.122Z,6.70
2023-03-17T17:33:25.808Z,6.90
2023-03-17T17:36:10.825Z,8.10
2023-03-17T17:38:39.406Z,7.20
2023-03-17T17:41:09.163Z,8.10
2023-03-17T17:43:37.751Z,6.10
2023-03-17T17:46:12.073Z,5.30
2023-03-17T17:48:40.792Z,9.00
2023-03-17T17:51:18.657Z,8.40
2023-03-17T17:53:58.470Z,8.10
2023-03-17T17:56:38.562Z,5.30
2023-03-17T17:59:58.755Z,6.50
2023-03-17T18:02:27.184Z,7.60
2023-03-17T18:04:55.667Z,6.20
2023-03-17T18:07:41.220Z,7.50
2023-03-17T18:10:18.133Z,7.30
2023-03-17T18:12:48.389Z,8.40
2023-03-17T18:15:17.626Z,6.10
2023-03-17T18:17:45.970Z,7.30
2023-03-17T18:20:16.725Z,6.00
2023-03-17T18:22:45.486Z,7.30
2023-03-17T18:25:16.718Z,6.80
2023-03-17T18:27:46.662Z,7.50
2023-03-17T18:30:25.788Z,7.80
2023-03-17T18:32:58.712Z,6.20
2023-03-17T18:35:29.437Z,8.10
2023-03-17T18:37:58.843Z,7.00
2023-03-17T18:40:27.545Z,6.30
2023-03-17T18:42:57.118Z,7.70
2023-03-17T18:45:25.890Z,6.70
2023-03-17T18:47:54.142Z,7.90
2023-03-17T18:50:23.640Z,8.20
2023-03-17T18:52:56.066Z,7.70
2023-03-17T18:55:24.958Z,7.50
2023-03-17T18:57:54.360Z,8.20
2023-03-17T19:00:24.775Z,7.40
2023-03-17T19:02:55.462Z,7.20
2023-03-17T19:05:25.051Z,7.70
2023-03-17T19:07:53.970Z,7.40
2023-03-17T19:10:22.418Z,8.60
2023-03-17T19:12:51.647Z,8.30
2023-03-17T19:15:21.488Z,8.80
2023-03-17T19:17:50.611Z,8.80
2023-03-17T19:20:19.636Z,8.90
2023-03-17T19:22:48.260Z,7.00
2023-03-17T19:25:17.355Z,7.10
2023-03-17T19:27:45.570Z,8.30
2023-03-17T19:30:15.221Z,10.00
2023-03-17T19:32:43.561Z,8.30
2023-03-17T19:35:12.015Z,8.20
2023-03-17T19:37:40.398Z,8.50
2023-03-17T19:40:12.659Z,9.20
2023-03-17T19:42:40.995Z,9.30
2023-03-17T19:45:10.959Z,9.30
2023-03-17T19:47:40.156Z,9.60
2023-03-17T19:50:11.024Z,9.20
2023-03-17T19:52:39.494Z,8.90
2023-03-17T19:55:10.085Z,8.60
2023-03-17T19:57:38.327Z,9.20
2023-03-17T20:00:11.190Z,6.70
2023-03-17T20:02:39.884Z,11.60
2023-03-17T20:05:09.582Z,10.90
2023-03-17T20:07:38.028Z,9.40
2023-03-17T20:10:08.532Z,9.90
2023-03-17T20:12:37.604Z,10.40
2023-03-17T20:15:08.395Z,10.10
2023-03-17T20:17:36.838Z,10.60
2023-03-17T20:20:08.620Z,11.30
2023-03-17T20:22:37.253Z,11.20
2023-03-17T20:25:09.761Z,10.80
2023-03-17T20:27:38.384Z,10.60
2023-03-17T20:30:11.527Z,7.70
2023-03-17T20:32:40.632Z,10.10
2023-03-17T20:35:10.134Z,9.60
2023-03-17T20:37:39.124Z,8.90
2023-03-17T20:40:10.205Z,9.80
2023-03-17T20:42:38.670Z,10.80
2023-03-17T20:45:08.408Z,10.00
2023-03-17T20:47:37.042Z,10.10
2023-03-17T20:50:08.188Z,10.70
2023-03-17T20:52:36.764Z,10.20
2023-03-17T20:55:06.396Z,9.60
2023-03-17T20:57:35.429Z,10.70
2023-03-17T21:00:04.584Z,10.60
2023-03-17T21:02:32.803Z,8.90
2023-03-17T21:05:02.365Z,9.30
2023-03-17T21:07:30.848Z,10.30
2023-03-17T21:10:01.534Z,10.50
2023-03-17T21:12:31.204Z,9.60
2023-03-17T21:15:00.130Z,10.00
2023-03-17T21:17:28.717Z,10.70
2023-03-17T21:19:56.995Z,9.80
2023-03-17T21:22:25.385Z,11.00
2023-03-17T21:24:54.852Z,10.40
2023-03-17T21:27:23.506Z,9.50
2023-03-17T21:29:52.040Z,10.30
2023-03-17T21:32:20.387Z,9.40
2023-03-17T21:34:48.796Z,10.10
2023-03-17T21:37:17.934Z,9.20
2023-03-17T21:39:46.190Z,10.20
2023-03-17T21:42:14.571Z,9.80
2023-03-17T21:44:45.146Z,10.40
2023-03-17T21:47:13.616Z,7.30
2023-03-17T21:49:42.306Z,10.00
2023-03-17T21:52:11.939Z,10.90
2023-03-17T21:54:42.327Z,8.10
2023-03-17T21:57:11.931Z,9.10
2023-03-17T21:59:40.617Z,10.20
2023-03-17T22:02:12.163Z,8.90
2023-03-17T22:04:41.098Z,9.30
2023-03-17T22:07:09.905Z,8.90
2023-03-17T22:09:38.440Z,9.70
2023-03-17T22:12:07.577Z,8.70
2023-03-17T22:14:36.185Z,9.30
2023-03-17T22:17:05.262Z,9.00
2023-03-17T22:19:33.829Z,9.60
2023-03-17T22:22:02.082Z,8.80
2023-03-17T22:24:31.818Z,7.20
2023-03-17T22:27:00.102Z,9.00
2023-03-17T22:29:28.627Z,9.80
2023-03-17T22:31:57.023Z,8.70
2023-03-17T22:34:25.784Z,8.30
2023-03-17T22:36:54.308Z,7.70
2023-03-17T22:39:22.631Z,9.40
2023-03-17T22:41:50.913Z,8.00
2023-03-17T22:44:19.254Z,8.90
2023-03-17T22:46:47.619Z,10.40
2023-03-17T22:49:16.254Z,9.20
2023-03-17T22:51:46.045Z,8.10
2023-03-17T22:54:14.248Z,9.00
2023-03-17T22:56:42.568Z,8.40
2023-03-17T22:59:10.904Z,8.80
2023-03-17T23:01:39.792Z,8.40
2023-03-17T23:04:08.867Z,9.70
2023-03-17T23:06:37.638Z,8.80
2023-03-17T23:09:06.983Z,8.30
2023-03-17T23:11:36.532Z,7.60
2023-03-17T23:14:05.127Z,7.30
2023-03-17T23:16:33.559Z,8.30
2023-03-17T23:19:02.252Z,6.80
2023-03-17T23:21:33.548Z,7.90
2023-03-17T23:24:03.218Z,7.70
2023-03-17T23:26:32.212Z,7.70
2023-03-17T23:29:00.590Z,8.10
2023-03-17T23:31:28.917Z,7.50
2023-03-17T23:33:57.640Z,8.00
2023-03-17T23:36:26.475Z,7.40
2023-03-17T23:38:54.665Z,7.80
2023-03-17T23:41:22.917Z,7.10
2023-03-17T23:43:51.266Z,7.50
2023-03-17T23:46:22.533Z,8.30
2023-03-17T23:48:51.816Z,7.40
2023-03-17T23:51:20.705Z,7.20
2023-03-17T23:53:49.937Z,8.10
2023-03-17T23:56:20.216Z,8.20
2023-03-17T23:58:49.450Z,6.50
